createdAt,value
2022-09-10T16:43:46.620Z,98534.53
2022-09-10T16:44:49.040Z,98530.25
2022-09-10T16:45:51.052Z,98535.59
2022-09-10T16:46:52.786Z,98535.34
2022-09-10T16:47:55.250Z,98534.03
2022-09-10T16:48:59.112Z,98534.84
2022-09-10T16:50:00.817Z,98531.44
2022-09-10T16:51:15.529Z,98531.47
2022-09-10T16:52:17.443Z,98536.81
2022-09-10T16:53:19.291Z,98531.47
2022-09-10T16:54:22.320Z,98536.56
2022-09-10T16:55:24.102Z,98539.81
2022-09-10T16:56:26.091Z,98535.25
2022-09-10T16:57:27.820Z,98533.94
2022-09-10T16:58:33.969Z,98536.38
2022-09-10T16:59:37.419Z,98537.44
2022-09-10T17:00:40.541Z,98542.25
2022-09-10T17:01:48.140Z,98547.09
2022-09-10T17:02:50.813Z,98542.81
2022-09-10T17:03:52.707Z,98544.69
2022-09-10T17:04:55.415Z,98540.41
2022-09-10T17:05:59.067Z,98538.25
2022-09-10T17:07:00.813Z,98543.63
2022-09-10T17:08:02.814Z,98543.63
2022-09-10T17:09:04.592Z,98547.94
2022-09-10T17:10:07.084Z,98542.59
2022-09-10T17:11:08.865Z,98548.97
2022-09-10T17:12:10.614Z,98551.41
2022-09-10T17:13:12.336Z,98549.78
2022-09-10T17:14:14.108Z,98557.56
2022-09-10T17:15:15.833Z,98550.63
2022-09-10T17:16:37.498Z,98547.69
2022-09-10T17:17:39.207Z,98551.91
2022-09-10T17:18:41.273Z,98559.13
2022-09-10T17:19:43.036Z,98562.84
2022-09-10T17:20:44.870Z,98558.88
2022-09-10T17:21:51.114Z,98559.94
2022-09-10T17:22:52.942Z,98548.41
2022-09-10T17:23:56.150Z,98548.94
2022-09-10T17:24:57.964Z,98548.13
2022-09-10T17:26:08.689Z,98550.53
2022-09-10T17:27:11.365Z,98544.66
2022-09-10T17:28:13.081Z,98550.00
2022-09-10T17:29:17.800Z,98548.38
2022-09-10T17:30:21.068Z,98555.59
2022-09-10T17:31:23.674Z,98537.38
2022-09-10T17:32:26.408Z,98549.38
2022-09-10T17:33:28.746Z,98548.56
2022-09-10T17:34:30.468Z,98548.84
2022-09-10T17:35:32.285Z,98554.44
2022-09-10T17:36:34.856Z,98546.66
2022-09-10T17:37:37.908Z,98551.69
2022-09-10T17:38:39.675Z,98547.41
2022-09-10T17:39:41.460Z,98551.94
2022-09-10T17:40:44.194Z,98556.50
2022-09-10T17:41:46.406Z,98562.66
2022-09-10T17:42:49.254Z,98556.75
2022-09-10T17:43:51.294Z,98561.53
2022-09-10T17:44:53.044Z,98559.94
2022-09-10T17:45:55.404Z,98558.06
2022-09-10T17:46:57.188Z,98552.72
2022-09-10T17:47:58.900Z,98556.72
2022-09-10T17:49:00.785Z,98562.06
2022-09-10T17:50:02.518Z,98557.78
2022-09-10T17:51:06.241Z,98558.56
2022-09-10T17:52:08.069Z,98563.13
2022-09-10T17:53:11.271Z,98559.84
2022-09-10T17:54:13.515Z,98557.19
2022-09-10T17:55:15.607Z,98562.28
2022-09-10T17:56:19.363Z,98561.97
2022-09-10T17:57:22.299Z,98555.03
2022-09-10T17:58:24.019Z,98565.72
2022-09-10T17:59:26.660Z,98573.19
2022-09-10T18:00:28.392Z,98578.28
2022-09-10T18:01:36.202Z,98571.31
2022-09-10T18:02:38.074Z,98571.81
2022-09-10T18:03:40.840Z,98581.72
2022-09-10T18:04:42.839Z,98575.56
2022-09-10T18:05:45.815Z,98576.59
2022-09-10T18:06:51.658Z,98578.22
2022-09-10T18:07:54.043Z,98584.38
2022-09-10T18:09:01.729Z,98578.22
2022-09-10T18:10:04.871Z,98583.25
2022-09-10T18:11:14.984Z,98582.19
2022-09-10T18:12:16.757Z,98588.34
2022-09-10T18:13:19.441Z,98585.38
2022-09-10T18:14:23.786Z,98585.63
2022-09-10T18:15:26.942Z,98581.31
2022-09-10T18:16:32.899Z,98587.47
2022-09-10T18:17:34.920Z,98590.13
2022-09-10T18:18:38.683Z,98584.50
2022-09-10T18:19:40.624Z,98590.88
2022-09-10T18:20:43.003Z,98588.44
2022-09-10T18:21:47.423Z,98595.66
2022-09-10T18:22:49.679Z,98583.59
2022-09-10T18:23:55.024Z,98589.19
2022-09-10T18:24:56.714Z,98587.84
2022-09-10T18:25:59.137Z,98592.38
2022-09-10T18:27:04.476Z,98602.25
2022-09-10T18:28:06.218Z,98596.06
2022-09-10T18:29:14.986Z,98595.53
2022-09-10T18:30:17.672Z,98604.03
2022-09-10T18:31:19.825Z,98604.03
2022-09-10T18:32:21.917Z,98606.72
2022-09-10T18:33:23.624Z,98592.78
2022-09-10T18:34:28.699Z,98596.28
2022-09-10T18:35:30.400Z,98596.78
2022-09-10T18:36:32.421Z,98595.13
2022-09-10T18:37:34.174Z,98591.66
2022-09-10T18:38:35.881Z,98594.56
2022-09-10T18:39:37.719Z,98599.66
2022-09-10T18:40:40.445Z,98591.09
2022-09-10T18:41:43.397Z,98605.53
2022-09-10T18:42:46.964Z,98607.63
2022-09-10T18:43:50.867Z,98599.88
2022-09-10T18:44:52.939Z,98598.00
2022-09-10T18:45:54.643Z,98607.06
2022-09-10T18:46:56.521Z,98602.78
2022-09-10T18:47:58.232Z,98602.78
2022-09-10T18:49:00.719Z,98601.41
2022-09-10T18:50:02.465Z,98601.41
2022-09-10T18:51:12.772Z,98599.56
2022-09-10T18:52:14.760Z,98599.56
2022-09-10T18:53:16.472Z,98602.22
2022-09-10T18:54:19.995Z,98601.66
2022-09-10T18:55:21.727Z,98600.03
2022-09-10T18:56:27.343Z,98611.53
2022-09-10T18:57:29.621Z,98604.31
2022-09-10T18:58:31.343Z,98611.78
2022-09-10T18:59:33.144Z,98608.28
2022-09-10T19:00:34.870Z,98600.53
2022-09-10T19:01:40.525Z,98599.47
2022-09-10T19:02:42.583Z,98612.28
2022-09-10T19:03:47.416Z,98604.50
2022-09-10T19:05:09.849Z,98612.78
2022-09-10T19:06:15.811Z,98604.75
2022-09-10T19:07:17.880Z,98608.25
2022-09-10T19:08:19.591Z,98607.66
2022-09-10T19:09:30.225Z,98601.03
2022-09-10T19:10:31.934Z,98595.09
2022-09-10T19:11:38.398Z,98601.50
2022-09-10T19:12:40.098Z,98606.28
2022-09-10T19:13:42.065Z,98600.38
2022-09-10T19:14:45.778Z,98613.75
2022-09-10T19:15:59.099Z,98613.50
2022-09-10T19:17:02.320Z,98603.84
2022-09-10T19:18:06.473Z,98620.94
2022-09-10T19:19:18.436Z,98607.84
2022-09-10T19:20:20.339Z,98613.19
2022-09-10T19:21:24.274Z,98607.84
2022-09-10T19:22:26.017Z,98614.25
2022-09-10T19:23:27.838Z,98609.94
2022-09-10T19:24:53.636Z,98613.69
2022-09-10T19:25:56.969Z,98612.63
2022-09-10T19:26:58.817Z,98615.50
2022-09-10T19:28:00.524Z,98612.53
2022-09-10T19:29:04.186Z,98614.94
2022-09-10T19:30:06.919Z,98614.41
2022-09-10T19:31:12.149Z,98611.72
2022-09-10T19:32:15.061Z,98609.31
2022-09-10T19:33:17.822Z,98602.09
2022-09-10T19:34:21.767Z,98607.94
2022-09-10T19:35:23.885Z,98609.56
2022-09-10T19:36:31.559Z,98608.50
2022-09-10T19:37:33.275Z,98606.88
2022-09-10T19:38:37.910Z,98620.22
2022-09-10T19:39:39.896Z,98616.75
2022-09-10T19:40:41.649Z,98612.47
2022-09-10T19:41:45.665Z,98612.47
2022-09-10T19:42:47.363Z,98615.59
2022-09-10T19:43:51.856Z,98614.78
2022-09-10T19:44:53.581Z,98617.47
2022-09-10T19:45:56.313Z,98616.09
2022-09-10T19:46:58.620Z,98609.13
2022-09-10T19:48:00.424Z,98614.72
2022-09-10T19:49:03.838Z,98615.78
2022-09-10T19:50:05.931Z,98614.13
2022-09-10T19:51:13.216Z,98613.34
2022-09-10T19:52:15.315Z,98611.47
2022-09-10T19:53:17.041Z,98617.88
2022-09-10T19:54:18.797Z,98614.38
2022-09-10T19:55:22.635Z,98617.06
2022-09-10T19:56:29.320Z,98612.53
2022-09-10T19:57:31.237Z,98617.88
2022-09-10T19:58:37.672Z,98617.06
2022-09-10T19:59:39.448Z,98615.19
2022-09-10T20:00:46.821Z,98613.78
2022-09-10T20:01:49.170Z,98613.78
2022-09-10T20:02:51.209Z,98620.75
2022-09-10T20:03:55.301Z,98619.38
2022-09-10T20:04:57.050Z,98613.22
2022-09-10T20:05:59.077Z,98619.63
2022-09-10T20:07:01.224Z,98619.63
2022-09-10T20:08:04.242Z,98621.25
2022-09-10T20:09:09.736Z,98622.06
2022-09-10T20:10:11.505Z,98620.44
2022-09-10T20:11:21.314Z,98620.44
2022-09-10T20:12:24.267Z,98626.03
2022-09-10T20:13:26.057Z,98624.97
2022-09-10T20:14:28.050Z,98623.34
2022-09-10T20:15:29.762Z,98632.16
2022-09-10T20:16:31.555Z,98617.44
2022-09-10T20:17:34.278Z,98620.94
2022-09-10T20:18:37.200Z,98624.41
2022-09-10T20:19:39.025Z,98623.34
2022-09-10T20:20:40.806Z,98626.03
2022-09-10T20:21:42.761Z,98623.34
2022-09-10T20:22:44.480Z,98624.16
2022-09-10T20:23:50.782Z,98623.34
2022-09-10T20:24:52.507Z,98621.75
2022-09-10T20:25:54.348Z,98621.97
2022-09-10T20:26:56.964Z,98618.50
2022-09-10T20:27:58.833Z,98629.19
2022-09-10T20:29:03.902Z,98626.50
2022-09-10T20:30:06.680Z,98616.88
2022-09-10T20:31:11.650Z,98624.91
2022-09-10T20:32:14.046Z,98627.78
2022-09-10T20:33:16.546Z,98624.31
2022-09-10T20:34:22.618Z,98624.31
2022-09-10T20:35:24.419Z,98620.03
2022-09-10T20:36:28.518Z,98624.31
2022-09-10T20:37:30.227Z,98622.69
2022-09-10T20:38:33.574Z,98624.31
2022-09-10T20:39:36.255Z,98623.50
2022-09-10T20:40:42.272Z,98624.56
2022-09-10T20:41:45.220Z,98627.22
2022-09-10T20:42:46.953Z,98628.53
2022-09-10T20:43:53.816Z,98625.59
2022-09-10T20:44:55.600Z,98624.56
2022-09-10T20:45:57.532Z,98624.00
2022-09-10T20:47:00.118Z,98619.47
2022-09-10T20:48:02.679Z,98623.19
2022-09-10T20:49:04.582Z,98625.59
2022-09-10T20:50:06.741Z,98624.00
2022-09-10T20:51:09.393Z,98624.00
2022-09-10T20:52:11.110Z,98617.84
2022-09-10T20:53:12.821Z,98622.38
2022-09-10T20:54:17.833Z,98626.41
2022-09-10T20:55:19.970Z,98627.22
2022-09-10T20:56:22.079Z,98631.75
2022-09-10T20:57:23.854Z,98628.84
2022-09-10T20:58:25.573Z,98627.78
2022-09-10T20:59:29.055Z,98628.84
2022-09-10T21:00:30.757Z,98626.75
2022-09-10T21:01:32.773Z,98620.63
2022-09-10T21:02:34.714Z,98626.75
2022-09-10T21:03:37.893Z,98628.03
2022-09-10T21:04:39.595Z,98621.63
2022-09-10T21:05:49.184Z,98629.44
2022-09-10T21:06:50.931Z,98630.25
2022-09-10T21:07:52.673Z,98636.63
2022-09-10T21:08:55.878Z,98628.63
2022-09-10T21:09:57.629Z,98627.56
2022-09-10T21:11:06.024Z,98629.44
2022-09-10T21:12:07.906Z,98633.13
2022-09-10T21:13:09.642Z,98629.66
2022-09-10T21:14:12.518Z,98629.66
2022-09-10T21:15:14.296Z,98629.44
2022-09-10T21:16:26.913Z,98623.03
2022-09-10T21:17:28.663Z,98625.72
2022-09-10T21:18:30.380Z,98626.75
2022-09-10T21:19:32.078Z,98624.31
2022-09-10T21:20:33.785Z,98631.28
2022-09-10T21:21:37.191Z,98632.09
2022-09-10T21:22:39.187Z,98630.44
2022-09-10T21:23:45.762Z,98629.66
2022-09-10T21:24:47.509Z,98632.56
2022-09-10T21:25:51.973Z,98634.66
2022-09-10T21:26:53.795Z,98631.19
2022-09-10T21:27:55.508Z,98635.47
2022-09-10T21:29:00.152Z,98642.69
2022-09-10T21:30:03.938Z,98633.84
2022-09-10T21:31:08.294Z,98626.09
2022-09-10T21:32:10.973Z,98636.53
2022-09-10T21:33:12.983Z,98630.63
2022-09-10T21:34:15.155Z,98635.16
2022-09-10T21:35:17.152Z,98635.16
2022-09-10T21:36:20.686Z,98629.81
2022-09-10T21:37:22.499Z,98629.81
2022-09-10T21:38:25.571Z,98635.97
2022-09-10T21:39:27.349Z,98630.88
2022-09-10T21:40:29.066Z,98636.47
2022-09-10T21:41:40.683Z,98638.88
2022-09-10T21:42:42.407Z,98641.78
2022-09-10T21:43:47.174Z,98636.69
2022-09-10T21:44:48.891Z,98644.69
2022-09-10T21:45:51.057Z,98639.59
2022-09-10T21:46:53.325Z,98641.44
2022-09-10T21:47:55.061Z,98644.13
2022-09-10T21:48:57.063Z,98642.25
2022-09-10T21:49:59.442Z,98640.63
2022-09-10T21:51:05.722Z,98640.63
2022-09-10T21:52:08.297Z,98644.94
2022-09-10T21:53:11.067Z,98645.97
2022-09-10T21:54:20.803Z,98650.25
2022-09-10T21:55:23.226Z,98642.50
2022-09-10T21:56:27.503Z,98644.84
2022-09-10T21:57:29.207Z,98642.75
2022-09-10T21:58:35.879Z,98648.91
2022-09-10T21:59:37.684Z,98649.13
2022-09-10T22:00:39.600Z,98654.47
2022-09-10T22:01:45.007Z,98648.31
2022-09-10T22:02:49.319Z,98662.25
2022-09-10T22:03:54.718Z,98654.47
2022-09-10T22:04:57.382Z,98655.28
2022-09-10T22:06:11.847Z,98668.63
2022-09-10T22:07:14.247Z,98666.19
2022-09-10T22:08:15.965Z,98668.88
2022-09-10T22:09:17.976Z,98658.19
2022-09-10T22:10:20.288Z,98669.91
2022-09-10T22:11:30.365Z,98669.69
2022-09-10T22:12:32.223Z,98671.53
2022-09-10T22:13:34.833Z,98671.53
2022-09-10T22:14:36.565Z,98674.22
2022-09-10T22:15:42.573Z,98671.78
2022-09-10T22:16:45.670Z,98682.47
2022-09-10T22:17:47.377Z,98673.66
2022-09-10T22:18:50.749Z,98670.97
2022-09-10T22:19:52.485Z,98675.50
2022-09-10T22:21:01.359Z,98673.41
2022-09-10T22:22:03.209Z,98669.13
2022-09-10T22:23:05.800Z,98675.81
2022-09-10T22:24:11.046Z,98669.91
2022-09-10T22:25:12.756Z,98666.69
2022-09-10T22:26:18.439Z,98665.63
2022-09-10T22:27:20.453Z,98666.69
2022-09-10T22:28:22.310Z,98660.53
2022-09-10T22:29:25.080Z,98666.69
2022-09-10T22:30:27.735Z,98672.84
2022-09-10T22:31:36.022Z,98662.97
2022-09-10T22:32:37.810Z,98661.91
2022-09-10T22:33:45.563Z,98664.59
2022-09-10T22:34:48.441Z,98663.78
2022-09-10T22:35:50.183Z,98671.78
2022-09-10T22:36:51.925Z,98674.44
2022-09-10T22:37:56.190Z,98672.84
2022-09-10T22:39:05.580Z,98664.59
2022-09-10T22:40:08.248Z,98667.50
2022-09-10T22:41:10.438Z,98658.91
2022-09-10T22:42:12.154Z,98663.44
2022-09-10T22:43:13.926Z,98665.03
2022-09-10T22:44:17.854Z,98662.38
2022-09-10T22:45:20.604Z,98657.03
2022-09-10T22:46:23.558Z,98659.72
2022-09-10T22:47:25.308Z,98657.03
2022-09-10T22:48:27.456Z,98659.94
2022-09-10T22:49:29.184Z,98653.81
2022-09-10T22:50:30.910Z,98656.47
2022-09-10T22:51:36.946Z,98651.13
2022-09-10T22:52:38.796Z,98658.09
2022-09-10T22:53:42.835Z,98648.47
2022-09-10T22:54:45.112Z,98661.25
2022-09-10T22:55:46.855Z,98653.00
2022-09-10T22:56:48.752Z,98651.13
2022-09-10T22:57:50.440Z,98652.19
2022-09-10T22:58:54.066Z,98650.31
2022-09-10T22:59:55.796Z,98653.25
2022-09-10T23:01:11.708Z,98650.09
2022-09-10T23:02:13.412Z,98650.31
2022-09-10T23:03:15.242Z,98653.25
2022-09-10T23:04:16.974Z,98652.44
2022-09-10T23:05:19.117Z,98653.47
2022-09-10T23:06:23.920Z,98651.88
2022-09-10T23:07:26.004Z,98657.44
2022-09-10T23:08:28.475Z,98659.88
2022-09-10T23:09:30.201Z,98656.63
2022-09-10T23:10:31.888Z,98653.97
2022-09-10T23:11:36.143Z,98660.34
2022-09-10T23:12:38.645Z,98660.13
2022-09-10T23:13:40.928Z,98656.88
2022-09-10T23:14:43.163Z,98651.31
2022-09-10T23:15:46.056Z,98649.44
2022-09-10T23:16:50.784Z,98659.06
2022-09-10T23:17:55.660Z,98658.00
2022-09-10T23:19:00.186Z,98655.34
2022-09-10T23:20:02.583Z,98659.06
2022-09-10T23:21:05.000Z,98654.78
2022-09-10T23:22:06.762Z,98657.44
2022-09-10T23:23:08.499Z,98652.09
2022-09-10T23:24:14.213Z,98651.31
2022-09-10T23:25:18.346Z,98656.63
2022-09-10T23:26:21.722Z,98654.22
2022-09-10T23:27:23.663Z,98649.44
2022-09-10T23:28:28.147Z,98646.78
2022-09-10T23:29:29.914Z,98653.16
2022-09-10T23:30:31.627Z,98651.53
2022-09-10T23:31:37.516Z,98653.63
2022-09-10T23:32:39.279Z,98655.47
2022-09-10T23:33:43.987Z,98657.59
2022-09-10T23:34:45.762Z,98649.34
2022-09-10T23:35:51.404Z,98650.38
2022-09-10T23:36:53.385Z,98646.91
2022-09-10T23:37:55.127Z,98647.97
2022-09-10T23:38:58.868Z,98651.44
2022-09-10T23:40:00.742Z,98646.09
2022-09-10T23:41:02.846Z,98649.00
2022-09-10T23:42:04.974Z,98655.16
2022-09-10T23:43:06.705Z,98639.16
2022-09-10T23:44:09.441Z,98645.28
2022-09-10T23:45:11.493Z,98653.53
2022-09-10T23:46:14.214Z,98646.59
2022-09-10T23:47:15.992Z,98649.50
2022-09-10T23:48:17.685Z,98652.16
2022-09-10T23:49:19.749Z,98651.81
2022-09-10T23:50:21.438Z,98650.75
2022-09-10T23:51:23.621Z,98651.56
2022-09-10T23:52:26.951Z,98653.44
2022-09-10T23:53:29.895Z,98654.22
2022-09-10T23:54:31.636Z,98659.34
2022-09-10T23:55:36.736Z,98654.03
2022-09-10T23:56:39.483Z,98654.84
2022-09-10T23:57:41.210Z,98655.06
2022-09-10T23:58:43.475Z,98657.75
2022-09-10T23:59:45.203Z,98657.75
